Time;durP1;ratioP1;P1;durP2;ratioP2;P2;SDS_P1;SDS_P2;PMS_P1;PMS_P2;Temp;Humidity;BMP_temperature;BMP_pressure;BME280_temperature;BME280_humidity;BME280_pressure;Samples;Min_cycle;Max_cycle;Signal;HPM_P1;HPM_P2
2024/01/17 00:00:00;;;;;;;10.07;4.30;;;-1.00;99.90;;;;;;5103014;28;20546;-49
2024/01/17 00:02:26;;;;;;;18.17;4.90;;;-1.00;99.90;;;;;;5103312;28;20027;-50
2024/01/17 00:04:54;;;;;;;15.82;4.03;;;-1.00;99.90;;;;;;5102360;28;20052;-52
2024/01/17 00:07:20;;;;;;;9.88;3.95;;;-1.00;99.90;;;;;;5104652;28;20027;-50
2024/01/17 00:09:47;;;;;;;9.20;5.00;;;-1.00;99.90;;;;;;5104152;28;20038;-52
2024/01/17 00:12:12;;;;;;;10.20;3.65;;;-1.00;99.90;;;;;;5104457;28;20028;-50
2024/01/17 00:14:38;;;;;;;16.25;4.32;;;-1.00;99.90;;;;;;5103323;28;20402;-51
2024/01/17 00:17:04;;;;;;;9.98;4.03;;;-1.00;99.90;;;;;;5104219;28;20043;-49
2024/01/17 00:19:32;;;;;;;8.65;3.53;;;-1.00;99.90;;;;;;5104231;28;20023;-49
2024/01/17 00:21:58;;;;;;;12.30;4.00;;;-1.00;99.90;;;;;;5103207;28;20107;-53
2024/01/17 00:24:24;;;;;;;12.98;4.97;;;-1.10;99.90;;;;;;5104666;28;20624;-51
2024/01/17 00:26:50;;;;;;;9.40;3.85;;;-1.10;99.90;;;;;;5102745;28;20055;-49
2024/01/17 00:29:18;;;;;;;15.32;4.07;;;-1.10;99.90;;;;;;5104340;28;20063;-50
2024/01/17 00:31:44;;;;;;;13.32;4.55;;;-1.10;99.90;;;;;;5102903;28;20016;-51
2024/01/17 00:34:10;;;;;;;12.10;5.15;;;-1.10;99.90;;;;;;5105264;28;20027;-52
2024/01/17 00:36:35;;;;;;;10.77;4.18;;;-1.10;99.90;;;;;;5097518;28;20028;-50
2024/01/17 00:39:01;;;;;;;17.38;4.78;;;-1.10;99.90;;;;;;5103548;28;20062;-51
2024/01/17 00:41:26;;;;;;;12.52;4.22;;;-1.10;99.90;;;;;;5104746;28;20032;-51
2024/01/17 00:43:52;;;;;;;10.00;4.18;;;-1.20;99.90;;;;;;5103256;28;20024;-51
2024/01/17 00:46:18;;;;;;;8.57;4.50;;;-1.20;99.90;;;;;;5104894;28;20024;-49
2024/01/17 00:48:43;;;;;;;14.05;4.50;;;-1.20;99.90;;;;;;5096557;28;20749;-52
2024/01/17 00:51:09;;;;;;;14.80;4.32;;;-1.20;99.90;;;;;;5104856;28;20524;-54
2024/01/17 00:53:35;;;;;;;10.50;4.35;;;-1.20;99.90;;;;;;5104588;28;20473;-53
2024/01/17 00:56:00;;;;;;;12.65;3.60;;;-1.20;99.90;;;;;;5104251;28;20016;-49
2024/01/17 00:58:27;;;;;;;17.70;4.40;;;-1.30;99.90;;;;;;5105092;28;20142;-50
2024/01/17 01:00:53;;;;;;;12.80;4.43;;;-1.20;99.90;;;;;;5105188;28;20020;-53
2024/01/17 01:03:18;;;;;;;10.77;4.30;;;-1.30;99.90;;;;;;5109702;28;20031;-51
2024/01/17 01:05:46;;;;;;;15.07;5.80;;;-1.30;99.90;;;;;;5105987;28;20027;-51
2024/01/17 01:08:12;;;;;;;10.50;3.65;;;-1.30;99.90;;;;;;5109421;28;20035;-50
2024/01/17 01:10:37;;;;;;;13.23;4.40;;;-1.30;99.90;;;;;;5108064;28;20051;-49
2024/01/17 01:13:03;;;;;;;9.20;4.32;;;-1.40;99.90;;;;;;5108494;28;20052;-49
2024/01/17 01:15:28;;;;;;;14.02;4.68;;;-1.40;99.90;;;;;;5109432;28;20101;-49
2024/01/17 01:17:54;;;;;;;12.35;4.88;;;-1.40;99.90;;;;;;5107698;28;20062;-49
2024/01/17 01:20:20;;;;;;;15.70;4.80;;;-1.40;99.90;;;;;;5109018;28;20027;-51
2024/01/17 01:22:45;;;;;;;14.85;4.38;;;-1.40;99.90;;;;;;5107528;28;20038;-50
2024/01/17 01:25:11;;;;;;;14.93;5.43;;;-1.40;99.90;;;;;;5109297;28;20028;-51
2024/01/17 01:27:37;;;;;;;12.85;4.47;;;-1.40;99.90;;;;;;5108583;28;20457;-49
2024/01/17 01:30:02;;;;;;;13.27;4.50;;;-1.40;99.90;;;;;;5106975;28;20491;-51
2024/01/17 01:32:29;;;;;;;13.82;4.53;;;-1.40;99.90;;;;;;5104730;27;20185;-52
2024/01/17 01:34:54;;;;;;;9.30;4.25;;;-1.40;99.90;;;;;;5107843;28;20115;-52
2024/01/17 01:37:20;;;;;;;10.38;4.82;;;-1.40;99.90;;;;;;5105094;28;20102;-52
2024/01/17 01:39:46;;;;;;;14.60;5.35;;;-1.40;99.90;;;;;;5107233;28;20036;-52
2024/01/17 01:42:11;;;;;;;13.93;4.70;;;-1.40;99.90;;;;;;5106194;28;20039;-49
2024/01/17 01:44:37;;;;;;;12.43;4.47;;;-1.40;99.90;;;;;;5108772;28;20484;-49
2024/01/17 01:47:03;;;;;;;11.02;5.00;;;-1.40;99.90;;;;;;5107083;28;20638;-49
2024/01/17 01:49:30;;;;;;;11.80;4.60;;;-1.40;99.90;;;;;;5109077;28;20039;-51
2024/01/17 01:51:55;;;;;;;16.27;4.68;;;-1.40;99.90;;;;;;5106558;28;20035;-48
2024/01/17 01:54:22;;;;;;;14.00;5.38;;;-1.40;99.90;;;;;;5109162;28;20015;-49
2024/01/17 01:56:50;;;;;;;10.90;4.10;;;-1.40;99.90;;;;;;5107888;28;20019;-48
2024/01/17 01:59:17;;;;;;;13.38;5.07;;;-1.40;99.90;;;;;;5109037;28;20024;-51
2024/01/17 02:01:42;;;;;;;8.73;4.72;;;-1.40;99.90;;;;;;5108444;28;20483;-51
2024/01/17 02:04:09;;;;;;;11.02;4.50;;;-1.40;99.90;;;;;;5094636;28;20035;-51
2024/01/17 02:06:35;;;;;;;13.75;4.97;;;-1.40;99.90;;;;;;5106236;27;20523;-52
2024/01/17 02:09:02;;;;;;;6.50;3.90;;;-1.40;99.90;;;;;;5103098;28;20112;-50
2024/01/17 02:11:31;;;;;;;9.35;4.45;;;-1.40;99.90;;;;;;5108813;28;20026;-50
2024/01/17 02:13:57;;;;;;;9.20;5.20;;;-1.40;99.90;;;;;;5108160;28;20066;-50
2024/01/17 02:16:24;;;;;;;13.15;5.93;;;-1.50;99.90;;;;;;5103838;28;20024;-49
2024/01/17 02:18:50;;;;;;;10.15;4.40;;;-1.40;99.90;;;;;;5096466;28;20012;-49
2024/01/17 02:21:16;;;;;;;10.63;4.90;;;-1.40;99.90;;;;;;5097293;28;20040;-49
2024/01/17 02:23:42;;;;;;;13.18;5.38;;;-1.40;99.90;;;;;;5093664;28;20016;-48
2024/01/17 02:26:08;;;;;;;10.73;5.28;;;-1.40;99.90;;;;;;5097907;28;20024;-50
2024/01/17 02:28:34;;;;;;;14.57;5.78;;;-1.40;99.90;;;;;;5095643;28;20095;-50
2024/01/17 02:30:59;;;;;;;12.85;4.93;;;-1.50;99.90;;;;;;5092924;28;20115;-50
2024/01/17 02:33:25;;;;;;;15.18;5.15;;;-1.40;99.90;;;;;;5094780;28;20078;-49
2024/01/17 02:35:51;;;;;;;14.25;6.80;;;-1.50;99.90;;;;;;5093006;28;20053;-50
2024/01/17 02:38:16;;;;;;;10.77;4.97;;;-1.40;99.90;;;;;;5094688;28;20409;-50
2024/01/17 02:40:42;;;;;;;21.30;5.82;;;-1.50;99.90;;;;;;5091654;28;20099;-51
2024/01/17 02:43:08;;;;;;;15.27;5.45;;;-1.50;99.90;;;;;;5094187;28;20027;-54
2024/01/17 02:45:34;;;;;;;13.93;5.88;;;-1.50;99.90;;;;;;5107855;28;20024;-52
2024/01/17 02:48:00;;;;;;;12.95;5.43;;;-1.50;99.90;;;;;;5108599;28;20081;-51
2024/01/17 02:50:26;;;;;;;10.68;5.45;;;-1.50;99.90;;;;;;5108976;27;20068;-49
2024/01/17 02:52:54;;;;;;;15.57;6.53;;;-1.60;99.90;;;;;;5108478;28;20024;-50
2024/01/17 02:55:23;;;;;;;15.95;6.82;;;-1.60;99.90;;;;;;5108277;28;20392;-49
2024/01/17 02:57:50;;;;;;;15.88;5.90;;;-1.60;99.90;;;;;;5106622;28;20636;-50
2024/01/17 03:00:16;;;;;;;12.65;5.70;;;-1.60;99.90;;;;;;5107846;28;20024;-51
2024/01/17 03:02:42;;;;;;;14.65;6.28;;;-1.60;99.90;;;;;;5109171;28;20039;-52
2024/01/17 03:05:08;;;;;;;14.57;5.95;;;-1.60;99.90;;;;;;5109245;28;20020;-54
2024/01/17 03:07:34;;;;;;;11.77;5.15;;;-1.60;99.90;;;;;;5109338;28;20027;-49
2024/01/17 03:10:00;;;;;;;10.77;5.53;;;-1.70;99.90;;;;;;5108398;27;20032;-49
2024/01/17 03:12:25;;;;;;;12.27;5.97;;;-1.60;99.90;;;;;;5107930;28;20023;-52
2024/01/17 03:14:51;;;;;;;18.15;6.75;;;-1.60;99.90;;;;;;5108806;28;20076;-51
2024/01/17 03:17:18;;;;;;;10.48;5.35;;;-1.60;99.90;;;;;;5109355;28;20110;-50
2024/01/17 03:19:45;;;;;;;18.30;6.57;;;-1.60;99.90;;;;;;5108749;28;20026;-52
2024/01/17 03:22:11;;;;;;;17.35;5.60;;;-1.60;99.90;;;;;;5109736;28;20047;-50
2024/01/17 03:24:37;;;;;;;19.02;6.40;;;-1.60;99.90;;;;;;5108800;28;20131;-50
2024/01/17 03:27:03;;;;;;;14.05;5.95;;;-1.60;99.90;;;;;;5109167;28;20443;-50
2024/01/17 03:29:29;;;;;;;18.15;5.88;;;-1.60;99.90;;;;;;5108935;28;20425;-50
2024/01/17 03:31:54;;;;;;;14.38;5.68;;;-1.60;99.90;;;;;;5108973;28;20030;-49
2024/01/17 03:34:20;;;;;;;16.63;6.03;;;-1.60;99.90;;;;;;5109344;28;20027;-50
2024/01/17 03:36:46;;;;;;;14.15;5.75;;;-1.60;99.90;;;;;;5108861;28;20027;-50
2024/01/17 03:39:11;;;;;;;12.13;6.03;;;-1.70;99.90;;;;;;5109149;28;20096;-50
2024/01/17 03:41:37;;;;;;;12.27;5.78;;;-1.60;99.90;;;;;;5101392;28;20115;-50
2024/01/17 03:44:02;;;;;;;13.80;6.30;;;-1.60;99.90;;;;;;5088899;28;20032;-52
2024/01/17 03:46:28;;;;;;;9.10;5.60;;;-1.60;99.90;;;;;;5089028;28;20039;-50
2024/01/17 03:48:53;;;;;;;21.45;7.00;;;-1.60;99.90;;;;;;5089096;28;20028;-49
2024/01/17 03:51:19;;;;;;;14.07;6.28;;;-1.60;99.90;;;;;;5088708;28;20054;-50
2024/01/17 03:53:46;;;;;;;17.02;6.10;;;-1.60;99.90;;;;;;5088947;28;20028;-49
2024/01/17 03:56:12;;;;;;;18.65;6.22;;;-1.70;99.90;;;;;;5088900;28;20022;-50
2024/01/17 03:58:39;;;;;;;10.68;6.18;;;-1.70;99.90;;;;;;5088797;28;20020;-51
2024/01/17 04:01:05;;;;;;;15.20;7.05;;;-1.70;99.90;;;;;;5089136;28;20024;-49
2024/01/17 04:03:31;;;;;;;11.00;5.60;;;-1.70;99.90;;;;;;5089333;28;20596;-50
2024/01/17 04:05:56;;;;;;;13.50;7.05;;;-1.70;99.90;;;;;;5089257;28;20031;-50
2024/01/17 04:08:22;;;;;;;17.02;5.82;;;-1.80;99.90;;;;;;5089077;28;20028;-48
2024/01/17 04:10:47;;;;;;;18.02;6.43;;;-1.80;99.90;;;;;;5089922;28;20380;-49
2024/01/17 04:13:13;;;;;;;14.63;5.90;;;-1.80;99.90;;;;;;5089009;28;20028;-48
2024/01/17 04:15:39;;;;;;;13.32;6.30;;;-1.80;99.90;;;;;;5089078;28;20016;-49
2024/01/17 04:18:04;;;;;;;17.77;6.32;;;-1.80;99.90;;;;;;5088996;28;20031;-49
2024/01/17 04:20:30;;;;;;;18.48;5.80;;;-1.80;99.90;;;;;;5087350;28;20028;-48
2024/01/17 04:22:55;;;;;;;16.13;6.35;;;-1.80;99.90;;;;;;5089433;28;20024;-47
2024/01/17 04:25:21;;;;;;;11.38;5.90;;;-1.80;99.90;;;;;;5089409;28;20028;-47
2024/01/17 04:27:47;;;;;;;15.70;6.22;;;-1.90;99.90;;;;;;5089530;28;20021;-48
2024/01/17 04:30:14;;;;;;;13.80;6.28;;;-1.90;99.90;;;;;;5089303;28;20060;-48
2024/01/17 04:32:41;;;;;;;16.75;7.10;;;-1.90;99.90;;;;;;5089339;28;20031;-49
2024/01/17 04:35:07;;;;;;;13.02;6.07;;;-1.90;99.90;;;;;;5090658;28;20019;-50
2024/01/17 04:37:33;;;;;;;21.25;6.43;;;-1.90;99.90;;;;;;5092381;28;20031;-49
2024/01/17 04:39:58;;;;;;;20.60;6.60;;;-1.90;99.90;;;;;;5094008;28;20167;-50
2024/01/17 04:42:24;;;;;;;18.23;6.80;;;-1.90;99.90;;;;;;5093592;28;20027;-50
2024/01/17 04:44:50;;;;;;;16.77;6.60;;;-1.90;99.90;;;;;;5094376;28;20035;-50
2024/01/17 04:47:15;;;;;;;13.68;6.03;;;-2.00;99.90;;;;;;5092706;28;20403;-50
2024/01/17 04:49:42;;;;;;;13.75;6.03;;;-2.00;99.90;;;;;;5093131;28;20023;-51
2024/01/17 04:52:09;;;;;;;16.95;6.55;;;-1.90;99.90;;;;;;5093780;28;20284;-49
2024/01/17 04:54:35;;;;;;;14.90;6.35;;;-1.90;99.90;;;;;;5093478;28;20500;-51
2024/01/17 04:57:00;;;;;;;16.73;6.10;;;-1.90;99.90;;;;;;5093970;28;20028;-48
2024/01/17 04:59:26;;;;;;;12.13;6.38;;;-1.90;99.90;;;;;;5093381;28;20020;-51
2024/01/17 05:01:52;;;;;;;14.85;6.65;;;-1.90;99.90;;;;;;5094198;28;20031;-48
2024/01/17 05:04:18;;;;;;;14.15;7.50;;;-1.90;99.90;;;;;;5092718;28;20020;-51
2024/01/17 05:06:43;;;;;;;16.20;7.60;;;-1.90;99.90;;;;;;5093330;28;20090;-50
2024/01/17 05:09:11;;;;;;;19.40;6.75;;;-1.90;99.90;;;;;;5091412;28;20427;-51
2024/01/17 05:11:37;;;;;;;13.02;5.78;;;-1.90;99.90;;;;;;5090920;28;20115;-50
2024/01/17 05:14:03;;;;;;;15.05;6.55;;;-1.90;99.90;;;;;;5091374;28;20103;-48
2024/01/17 05:16:28;;;;;;;25.35;7.03;;;-1.90;99.90;;;;;;5091668;28;20489;-50
2024/01/17 05:18:54;;;;;;;19.17;6.07;;;-1.90;99.90;;;;;;5091811;28;20024;-50
2024/01/17 05:21:19;;;;;;;14.98;6.10;;;-1.80;99.90;;;;;;5091892;28;20024;-51
2024/01/17 05:23:45;;;;;;;12.57;6.30;;;-1.80;99.90;;;;;;5091697;28;20078;-50
2024/01/17 05:26:10;;;;;;;14.93;5.80;;;-1.80;99.90;;;;;;5091442;28;20032;-50
2024/01/17 05:28:36;;;;;;;18.92;7.63;;;-1.80;99.90;;;;;;5093763;28;20012;-51
2024/01/17 05:31:02;;;;;;;13.15;6.25;;;-1.80;99.90;;;;;;5094709;28;20019;-48
2024/01/17 05:33:27;;;;;;;12.27;5.72;;;-1.70;99.90;;;;;;5093754;28;20362;-49
2024/01/17 05:35:53;;;;;;;11.75;5.93;;;-1.70;99.90;;;;;;5095035;28;20030;-48
2024/01/17 05:38:18;;;;;;;23.00;8.25;;;-1.80;99.90;;;;;;5092374;28;20027;-49
2024/01/17 05:40:44;;;;;;;15.13;5.80;;;-1.80;99.90;;;;;;5093461;28;20016;-49
2024/01/17 05:43:10;;;;;;;10.90;5.70;;;-1.80;99.90;;;;;;5094608;28;20404;-48
2024/01/17 05:45:36;;;;;;;11.50;5.07;;;-1.80;99.90;;;;;;5092255;28;20028;-48
2024/01/17 05:48:01;;;;;;;14.13;6.43;;;-1.80;99.90;;;;;;5093460;28;20366;-48
2024/01/17 05:50:27;;;;;;;12.40;5.72;;;-1.80;99.90;;;;;;5093614;28;20024;-56
2024/01/17 05:52:53;;;;;;;10.15;5.32;;;-1.80;99.90;;;;;;5094812;28;20054;-48
2024/01/17 05:55:22;;;;;;;17.38;5.95;;;-1.80;99.90;;;;;;5086905;28;20062;-48
2024/01/17 05:57:48;;;;;;;13.15;6.55;;;-1.90;99.90;;;;;;5094500;28;20020;-48
2024/01/17 06:00:14;;;;;;;11.50;6.03;;;-1.90;99.90;;;;;;5092867;28;20574;-51
2024/01/17 06:02:41;;;;;;;14.43;6.05;;;-2.00;99.90;;;;;;5093044;28;20031;-50
2024/01/17 06:05:10;;;;;;;10.52;5.78;;;-1.90;99.90;;;;;;5095032;28;20024;-50
2024/01/17 06:07:36;;;;;;;15.95;5.70;;;-1.90;99.90;;;;;;5092996;28;20016;-49
2024/01/17 06:10:03;;;;;;;15.68;6.32;;;-2.00;99.90;;;;;;5094333;28;20059;-48
2024/01/17 06:12:28;;;;;;;15.60;6.10;;;-2.00;99.90;;;;;;5093544;28;20023;-50
2024/01/17 06:14:54;;;;;;;12.05;5.18;;;-1.90;99.90;;;;;;5094975;28;20461;-48
2024/01/17 06:17:19;;;;;;;14.90;6.07;;;-2.00;99.90;;;;;;5093664;28;20020;-50
2024/01/17 06:19:45;;;;;;;14.73;6.07;;;-2.00;99.90;;;;;;5093718;28;20028;-51
2024/01/17 06:22:12;;;;;;;11.70;5.78;;;-2.00;99.90;;;;;;5094998;28;20069;-50
2024/01/17 06:24:37;;;;;;;15.35;6.28;;;-2.10;99.90;;;;;;5093979;28;20028;-50
2024/01/17 06:27:03;;;;;;;10.77;5.32;;;-2.10;99.90;;;;;;5094288;28;20389;-48
2024/01/17 06:29:30;;;;;;;12.05;6.03;;;-2.10;99.90;;;;;;5093389;28;20020;-49
2024/01/17 06:31:57;;;;;;;13.35;6.75;;;-2.10;99.90;;;;;;5095016;28;20024;-48
2024/01/17 06:34:22;;;;;;;17.25;7.20;;;-2.00;99.90;;;;;;5092779;28;20050;-50
2024/01/17 06:36:56;;;;;;;16.33;8.15;;;-2.00;99.90;;;;;;5093457;28;20559;-52
2024/01/17 06:39:21;;;;;;;13.25;6.88;;;-2.10;99.90;;;;;;5092910;28;20073;-50
2024/01/17 06:41:49;;;;;;;21.40;8.63;;;-2.10;99.90;;;;;;5093415;28;20424;-50
2024/01/17 06:44:15;;;;;;;15.45;7.63;;;-2.20;99.90;;;;;;5094669;28;20019;-50
2024/01/17 06:46:40;;;;;;;16.70;7.15;;;-2.20;99.90;;;;;;5091232;28;20058;-51
2024/01/17 06:49:06;;;;;;;14.23;7.63;;;-2.20;99.90;;;;;;5095226;28;20020;-51
2024/01/17 06:51:31;;;;;;;14.90;7.18;;;-2.20;99.90;;;;;;5093106;28;20059;-52
2024/01/17 06:53:57;;;;;;;21.02;8.18;;;-2.30;99.90;;;;;;5094758;28;20053;-52
2024/01/17 06:56:22;;;;;;;15.80;7.82;;;-2.30;99.90;;;;;;5091136;28;20029;-52
2024/01/17 06:58:48;;;;;;;15.02;7.57;;;-2.30;99.90;;;;;;5089603;28;20481;-51
2024/01/17 07:01:13;;;;;;;18.45;9.80;;;-2.30;99.90;;;;;;5094749;28;20080;-52
2024/01/17 07:03:39;;;;;;;17.83;8.38;;;-2.40;99.90;;;;;;5094027;28;20501;-50
2024/01/17 07:06:05;;;;;;;17.13;8.20;;;-2.30;99.90;;;;;;5095754;28;20273;-50
2024/01/17 07:08:31;;;;;;;14.65;7.45;;;-2.30;99.90;;;;;;5093622;28;20050;-52
2024/01/17 07:10:56;;;;;;;17.05;8.02;;;-2.30;99.90;;;;;;5095266;28;20040;-51
2024/01/17 07:13:22;;;;;;;22.08;8.73;;;-2.30;99.90;;;;;;5094464;28;20028;-51
2024/01/17 07:15:47;;;;;;;18.25;8.18;;;-2.30;99.90;;;;;;5094772;28;20077;-50
2024/01/17 07:18:13;;;;;;;17.60;7.95;;;-2.30;99.90;;;;;;5095413;28;20031;-50
2024/01/17 07:20:38;;;;;;;18.63;8.73;;;-2.30;99.90;;;;;;5093480;28;20016;-49
2024/01/17 07:23:04;;;;;;;18.20;8.13;;;-2.30;99.90;;;;;;5096018;28;20040;-49
2024/01/17 07:25:31;;;;;;;24.70;7.72;;;-2.30;99.90;;;;;;5093892;28;20020;-48
2024/01/17 07:27:56;;;;;;;18.70;9.13;;;-2.30;99.90;;;;;;5095813;28;20048;-49
2024/01/17 07:30:22;;;;;;;18.55;8.10;;;-2.30;99.90;;;;;;5094006;28;20476;-48
2024/01/17 07:32:47;;;;;;;22.20;8.30;;;-2.30;99.90;;;;;;5094410;28;20072;-50
2024/01/17 07:35:14;;;;;;;21.80;10.55;;;-2.30;99.90;;;;;;5095799;28;20024;-52
2024/01/17 07:37:39;;;;;;;18.83;8.65;;;-2.30;99.90;;;;;;5093805;28;20741;-49
2024/01/17 07:40:05;;;;;;;16.58;8.77;;;-2.30;99.90;;;;;;5095532;28;20046;-49
2024/01/17 07:42:31;;;;;;;17.92;9.02;;;-2.20;99.90;;;;;;5094092;28;20091;-49
2024/01/17 07:44:56;;;;;;;20.13;9.20;;;-2.20;99.90;;;;;;5095878;28;20423;-53
2024/01/17 07:47:23;;;;;;;19.58;8.55;;;-2.20;99.90;;;;;;5094667;28;20031;-48
2024/01/17 07:49:48;;;;;;;21.85;9.23;;;-2.20;99.90;;;;;;5094061;28;20024;-48
2024/01/17 07:52:14;;;;;;;17.40;9.00;;;-2.20;99.90;;;;;;5095677;28;20028;-53
2024/01/17 07:54:39;;;;;;;17.38;8.55;;;-2.20;99.90;;;;;;5094042;28;20039;-53
2024/01/17 07:57:05;;;;;;;20.95;10.07;;;-2.20;99.90;;;;;;5096451;28;20396;-49
2024/01/17 07:59:31;;;;;;;19.98;9.63;;;-2.20;99.90;;;;;;5092734;28;20523;-51
2024/01/17 08:01:57;;;;;;;20.90;9.20;;;-2.20;99.90;;;;;;5093155;28;20027;-52
2024/01/17 08:04:23;;;;;;;16.48;8.82;;;-2.20;99.90;;;;;;5094070;28;20531;-50
2024/01/17 08:06:50;;;;;;;18.27;8.88;;;-2.20;99.90;;;;;;5093583;28;20038;-51
2024/01/17 08:09:22;;;;;;;23.20;8.75;;;-2.10;99.90;;;;;;5093598;28;20494;-49
2024/01/17 08:11:52;;;;;;;27.08;8.93;;;-2.10;99.90;;;;;;5093104;28;20373;-50
2024/01/17 08:14:18;;;;;;;22.98;8.65;;;-2.20;99.90;;;;;;5092507;28;20038;-48
2024/01/17 08:16:44;;;;;;;17.25;8.57;;;-2.20;99.90;;;;;;5093501;28;20397;-50
2024/01/17 08:19:10;;;;;;;22.27;9.60;;;-2.20;99.90;;;;;;5096590;28;20038;-50
2024/01/17 08:21:36;;;;;;;23.95;9.88;;;-2.20;99.90;;;;;;5093790;28;20024;-51
2024/01/17 08:24:02;;;;;;;14.18;7.93;;;-2.10;99.90;;;;;;5092929;28;20031;-51
2024/01/17 08:26:28;;;;;;;21.38;8.57;;;-2.00;99.90;;;;;;5091254;28;20032;-50
2024/01/17 08:28:54;;;;;;;21.23;9.68;;;-2.00;99.90;;;;;;5089629;28;20043;-50
2024/01/17 08:31:20;;;;;;;18.20;10.23;;;-1.90;99.90;;;;;;5093416;28;20481;-49
2024/01/17 08:33:45;;;;;;;27.13;9.68;;;-1.80;99.90;;;;;;5091175;28;20020;-50
2024/01/17 08:36:14;;;;;;;19.75;8.48;;;-1.80;99.90;;;;;;5097156;28;20069;-50
2024/01/17 08:38:40;;;;;;;18.52;9.10;;;-1.80;99.90;;;;;;5093811;28;20085;-53
2024/01/17 08:41:05;;;;;;;18.73;9.90;;;-1.70;99.90;;;;;;5097259;28;20027;-50
2024/01/17 08:43:31;;;;;;;24.80;9.07;;;-1.60;99.90;;;;;;5094674;28;20052;-53
2024/01/17 08:45:57;;;;;;;18.55;8.30;;;-1.60;99.90;;;;;;5094114;28;20039;-51
2024/01/17 08:48:22;;;;;;;19.88;9.00;;;-1.60;99.90;;;;;;5095274;28;20031;-51
2024/01/17 08:50:48;;;;;;;19.17;9.98;;;-1.50;99.90;;;;;;5094597;28;20217;-52
2024/01/17 08:53:14;;;;;;;14.10;8.00;;;-1.40;99.90;;;;;;5096666;28;20102;-48
2024/01/17 08:55:40;;;;;;;14.18;8.30;;;-1.40;99.90;;;;;;5094414;28;20066;-49
2024/01/17 08:58:06;;;;;;;22.35;8.68;;;-1.30;99.90;;;;;;5097166;28;20469;-52
2024/01/17 09:00:32;;;;;;;16.83;8.45;;;-1.30;99.90;;;;;;5094690;28;20065;-50
2024/01/17 09:02:57;;;;;;;14.27;8.02;;;-1.20;99.90;;;;;;5097204;28;20103;-50
2024/01/17 09:05:23;;;;;;;18.55;8.80;;;-1.10;99.90;;;;;;5096773;28;20389;-49
2024/01/17 09:07:49;;;;;;;23.55;10.70;;;-1.10;99.90;;;;;;5095657;28;20485;-49
2024/01/17 09:10:18;;;;;;;23.98;9.65;;;-1.00;99.90;;;;;;5097652;28;20019;-51
2024/01/17 09:12:44;;;;;;;17.65;9.45;;;-0.90;99.90;;;;;;5095233;28;20032;-48
2024/01/17 09:15:10;;;;;;;24.95;9.05;;;-0.70;99.90;;;;;;5098910;27;20531;-51
2024/01/17 09:17:36;;;;;;;15.07;8.48;;;-0.60;99.90;;;;;;5095119;28;20016;-50
2024/01/17 09:20:03;;;;;;;13.32;8.48;;;-0.50;99.90;;;;;;5097339;28;20346;-48
2024/01/17 09:22:29;;;;;;;19.90;8.35;;;-0.40;99.90;;;;;;5099414;28;20024;-48
2024/01/17 09:24:54;;;;;;;17.77;9.27;;;-0.30;99.90;;;;;;5100847;28;20046;-51
2024/01/17 09:27:20;;;;;;;15.63;8.10;;;-0.30;99.90;;;;;;5097672;28;20031;-51
2024/01/17 09:29:46;;;;;;;12.88;6.85;;;-0.20;99.90;;;;;;5099003;28;20099;-52
2024/01/17 09:32:13;;;;;;;14.95;8.43;;;-0.10;99.90;;;;;;5102734;28;20069;-50
2024/01/17 09:34:39;;;;;;;13.85;7.45;;;0.00;99.90;;;;;;5095083;28;20012;-48
2024/01/17 09:37:05;;;;;;;18.08;8.18;;;0.10;99.90;;;;;;5101891;28;20027;-51
2024/01/17 09:39:30;;;;;;;24.48;8.73;;;0.20;99.90;;;;;;5099551;28;20098;-50
2024/01/17 09:42:02;;;;;;;27.77;10.02;;;0.30;99.90;;;;;;5100746;28;20035;-49
2024/01/17 09:44:27;;;;;;;21.63;9.38;;;0.40;99.90;;;;;;5099675;28;20024;-48
2024/01/17 09:46:58;;;;;;;15.00;7.35;;;0.40;99.90;;;;;;5097808;28;20026;-49
2024/01/17 09:49:24;;;;;;;18.63;9.77;;;0.60;99.90;;;;;;5099312;27;20437;-48
2024/01/17 09:51:51;;;;;;;12.52;7.72;;;0.60;99.90;;;;;;5098266;28;20036;-50
2024/01/17 09:54:18;;;;;;;19.40;8.77;;;0.60;99.90;;;;;;5101294;28;20099;-52
2024/01/17 09:56:46;;;;;;;15.25;8.15;;;0.80;99.90;;;;;;5098263;28;20427;-51
2024/01/17 09:59:17;;;;;;;16.23;8.07;;;0.90;99.90;;;;;;5093798;28;20353;-50
2024/01/17 10:01:45;;;;;;;;;;;0.90;99.90;;;;;;5099946;28;20031;-50
2024/01/17 10:04:13;;;;;;;14.73;7.10;;;0.90;99.90;;;;;;5095340;28;20318;-50
2024/01/17 10:06:42;;;;;;;20.48;8.13;;;1.00;99.90;;;;;;5099396;28;20497;-53
2024/01/17 10:09:08;;;;;;;13.93;7.65;;;1.10;99.90;;;;;;5102722;28;20027;-54
2024/01/17 10:11:34;;;;;;;14.63;8.25;;;1.20;99.90;;;;;;5099702;28;20450;-52
2024/01/17 10:13:59;;;;;;;14.90;8.35;;;1.20;99.90;;;;;;5101970;28;20103;-54
2024/01/17 10:16:26;;;;;;;14.30;8.32;;;1.20;99.90;;;;;;5101527;28;20531;-54
2024/01/17 10:18:51;;;;;;;16.08;7.47;;;1.20;99.90;;;;;;5100521;28;20021;-52
2024/01/17 10:21:17;;;;;;;15.18;9.00;;;1.30;99.90;;;;;;5102312;28;20506;-53
2024/01/17 10:23:43;;;;;;;15.23;7.00;;;1.40;99.90;;;;;;5099604;28;20564;-53
2024/01/17 10:26:09;;;;;;;16.50;8.10;;;1.50;99.90;;;;;;5102606;28;20024;-53
2024/01/17 10:28:35;;;;;;;15.57;7.90;;;1.50;99.90;;;;;;5100301;28;20028;-54
2024/01/17 10:31:06;;;;;;;14.20;8.00;;;1.60;99.90;;;;;;5101531;28;20473;-51
2024/01/17 10:33:32;;;;;;;15.23;8.88;;;1.70;99.90;;;;;;5100839;28;20026;-52
2024/01/17 10:35:59;;;;;;;21.20;9.05;;;1.80;99.90;;;;;;5101231;28;20012;-53
2024/01/17 10:38:33;;;;;;;18.52;8.02;;;1.80;99.90;;;;;;5100133;28;20026;-53
2024/01/17 10:41:10;;;;;;;20.98;7.65;;;2.00;99.90;;;;;;5100962;28;20096;-55
2024/01/17 10:43:55;;;;;;;16.92;8.50;;;2.10;99.90;;;;;;5095971;28;20027;-53
2024/01/17 10:46:24;;;;;;;20.00;7.93;;;2.20;99.90;;;;;;5096187;28;20389;-52
2024/01/17 10:48:50;;;;;;;16.50;8.15;;;2.20;99.90;;;;;;5098096;28;20425;-51
2024/01/17 10:51:23;;;;;;;14.50;7.13;;;2.20;99.90;;;;;;5101846;28;20023;-53
2024/01/17 10:53:52;;;;;;;17.35;8.00;;;2.20;99.90;;;;;;5098674;28;20020;-54
2024/01/17 10:56:22;;;;;;;18.95;7.50;;;2.30;99.90;;;;;;5102850;28;20512;-52
2024/01/17 10:58:49;;;;;;;17.50;8.23;;;2.30;99.90;;;;;;5095012;28;20376;-53
2024/01/17 11:01:20;;;;;;;13.82;8.88;;;2.30;99.90;;;;;;5102597;28;20032;-52
2024/01/17 11:03:47;;;;;;;20.42;8.60;;;2.30;99.90;;;;;;5096369;28;20362;-48
2024/01/17 11:06:15;;;;;;;20.55;9.63;;;2.40;99.90;;;;;;5102913;28;20051;-47
2024/01/17 11:08:43;;;;;;;14.20;8.73;;;2.60;99.90;;;;;;5099363;28;20528;-50
2024/01/17 11:11:09;;;;;;;18.27;9.80;;;2.70;99.90;;;;;;5098644;28;20108;-48
2024/01/17 11:13:36;;;;;;;19.83;9.85;;;2.80;99.90;;;;;;5098748;28;20024;-49
2024/01/17 11:16:05;;;;;;;17.95;9.35;;;3.00;99.90;;;;;;5090357;28;20361;-48
2024/01/17 11:18:34;;;;;;;20.67;9.20;;;3.00;99.90;;;;;;5090579;28;20012;-51
2024/01/17 11:21:01;;;;;;;20.70;9.43;;;3.30;99.90;;;;;;5090167;28;20016;-49
2024/01/17 11:23:40;;;;;;;21.38;10.32;;;3.30;99.90;;;;;;5095156;28;20035;-49
2024/01/17 11:26:19;;;;;;;20.73;9.07;;;3.30;99.90;;;;;;5097636;28;20024;-49
2024/01/17 11:28:58;;;;;;;17.48;9.70;;;3.40;99.90;;;;;;5099756;28;20074;-53
2024/01/17 11:32:05;;;;;;;16.52;9.57;;;3.30;99.90;;;;;;5094343;28;20055;-53
2024/01/17 11:34:31;;;;;;;16.92;9.40;;;3.20;99.90;;;;;;5088223;28;20089;-53
2024/01/17 11:36:56;;;;;;;17.10;10.02;;;3.10;99.90;;;;;;5100937;28;20040;-51
2024/01/17 11:39:24;;;;;;;19.67;9.98;;;3.00;99.90;;;;;;5094813;28;20023;-54
2024/01/17 11:41:50;;;;;;;21.52;10.32;;;2.90;99.90;;;;;;5090262;28;20028;-50
2024/01/17 11:44:17;;;;;;;19.23;9.82;;;2.80;99.90;;;;;;5094263;28;20043;-49
2024/01/17 11:46:49;;;;;;;16.58;10.07;;;2.70;99.90;;;;;;5093750;28;20443;-50
2024/01/17 11:49:15;;;;;;;18.50;10.32;;;2.60;99.90;;;;;;5091654;28;20028;-48
2024/01/17 11:51:40;;;;;;;24.05;10.15;;;2.70;99.90;;;;;;5097058;28;20028;-49
2024/01/17 11:54:11;;;;;;;18.08;11.23;;;2.60;99.90;;;;;;5100180;28;20557;-51
2024/01/17 11:56:36;;;;;;;18.15;10.18;;;2.50;99.90;;;;;;5101069;28;20043;-50
2024/01/17 11:59:12;;;;;;;14.70;9.70;;;2.30;99.90;;;;;;5101831;28;20404;-49
2024/01/17 12:01:44;;;;;;;17.25;10.68;;;2.30;99.90;;;;;;5100400;28;20414;-50
2024/01/17 12:04:14;;;;;;;19.40;9.85;;;2.30;99.90;;;;;;5092327;28;20103;-50
2024/01/17 12:06:41;;;;;;;19.80;10.93;;;2.30;99.90;;;;;;5100394;28;20023;-49
2024/01/17 12:09:15;;;;;;;26.67;11.07;;;2.30;99.90;;;;;;5102722;28;20043;-51
2024/01/17 12:11:41;;;;;;;21.85;10.27;;;2.20;99.90;;;;;;5098986;28;20026;-51
2024/01/17 12:14:07;;;;;;;16.13;10.55;;;2.10;99.90;;;;;;5102900;28;20532;-50
2024/01/17 12:16:32;;;;;;;23.58;11.68;;;2.10;99.90;;;;;;5101957;28;20108;-50
2024/01/17 12:18:59;;;;;;;20.92;11.73;;;2.10;99.90;;;;;;5101479;28;20469;-50
2024/01/17 12:21:25;;;;;;;18.55;10.13;;;2.10;99.90;;;;;;5102527;28;20055;-52
2024/01/17 12:23:51;;;;;;;17.27;9.70;;;2.10;99.90;;;;;;5100348;28;20390;-49
2024/01/17 12:26:17;;;;;;;17.83;9.65;;;2.10;99.90;;;;;;5103210;28;20016;-49
2024/01/17 12:28:42;;;;;;;19.10;9.75;;;2.10;99.90;;;;;;5100695;28;20016;-50
2024/01/17 12:31:08;;;;;;;22.45;12.27;;;1.90;99.90;;;;;;5102703;28;20298;-51
2024/01/17 12:33:34;;;;;;;16.42;9.35;;;1.90;99.90;;;;;;5101887;28;20028;-51